createdAt,value
2022-12-25T00:00:25.395Z,6.00
2022-12-25T00:02:53.655Z,6.00
2022-12-25T00:05:21.805Z,5.90
2022-12-25T00:07:50.255Z,5.80
2022-12-25T00:10:18.633Z,5.80
2022-12-25T00:12:46.862Z,5.70
2022-12-25T00:15:16.486Z,5.70
2022-12-25T00:17:44.679Z,5.70
2022-12-25T00:20:13.159Z,5.90
2022-12-25T00:22:41.251Z,5.80
2022-12-25T00:25:09.953Z,5.60
2022-12-25T00:27:38.789Z,5.70
2022-12-25T00:30:08.234Z,5.60
2022-12-25T00:32:38.781Z,5.70
2022-12-25T00:35:07.762Z,5.60
2022-12-25T00:37:35.974Z,5.70
2022-12-25T00:40:04.253Z,5.70
2022-12-25T00:42:34.461Z,5.70
2022-12-25T00:45:02.655Z,5.60
2022-12-25T00:47:32.735Z,5.60
2022-12-25T00:50:02.245Z,5.60
2022-12-25T00:52:30.473Z,5.50
2022-12-25T00:54:58.696Z,5.40
2022-12-25T00:57:26.770Z,5.40
2022-12-25T00:59:56.986Z,5.20
2022-12-25T01:02:25.492Z,5.30
2022-12-25T01:04:55.611Z,5.30
2022-12-25T01:07:26.779Z,5.40
2022-12-25T01:10:12.299Z,5.40
2022-12-25T01:12:42.708Z,5.50
2022-12-25T01:15:14.250Z,5.50
2022-12-25T01:17:43.039Z,5.40
2022-12-25T01:20:12.580Z,5.40
2022-12-25T01:22:42.637Z,5.10
2022-12-25T01:25:12.146Z,5.00
2022-12-25T01:27:41.778Z,5.10
2022-12-25T01:30:11.247Z,4.80
2022-12-25T01:32:39.434Z,5.10
2022-12-25T01:35:08.429Z,5.00
2022-12-25T01:37:36.600Z,5.00
2022-12-25T01:40:07.609Z,4.80
2022-12-25T01:42:36.005Z,4.80
2022-12-25T01:45:37.542Z,4.70
2022-12-25T01:48:09.834Z,4.80
2022-12-25T01:50:40.692Z,4.80
2022-12-25T01:53:09.325Z,4.60
2022-12-25T01:55:40.873Z,4.30
2022-12-25T01:58:09.368Z,4.20
2022-12-25T02:00:37.683Z,4.20
2022-12-25T02:03:06.684Z,4.00
2022-12-25T02:05:36.258Z,3.90
2022-12-25T02:08:10.295Z,3.80
2022-12-25T02:10:39.845Z,3.90
2022-12-25T02:13:08.988Z,4.10
2022-12-25T02:15:45.029Z,4.00
2022-12-25T02:18:20.496Z,4.00
2022-12-25T02:21:09.285Z,3.90
2022-12-25T02:23:58.018Z,3.70
2022-12-25T02:26:56.339Z,3.80
2022-12-25T02:29:31.692Z,3.80
2022-12-25T02:32:03.960Z,3.80
2022-12-25T02:34:37.836Z,3.70
2022-12-25T02:37:08.874Z,3.50
2022-12-25T02:39:59.735Z,3.50
2022-12-25T02:43:05.554Z,3.40
2022-12-25T02:45:57.256Z,3.30
2022-12-25T02:48:46.173Z,3.50
2022-12-25T02:51:35.718Z,3.50
2022-12-25T02:54:26.109Z,3.70
2022-12-25T02:57:15.471Z,3.70
2022-12-25T03:00:17.466Z,4.00
2022-12-25T03:03:05.745Z,4.00
2022-12-25T03:05:55.613Z,4.00
2022-12-25T03:08:29.089Z,4.00
2022-12-25T03:11:20.454Z,4.00
2022-12-25T03:13:53.656Z,4.00
2022-12-25T03:16:40.173Z,3.90
2022-12-25T03:19:23.771Z,3.80
2022-12-25T03:22:23.998Z,3.90
2022-12-25T03:25:09.619Z,4.00
2022-12-25T03:27:38.647Z,3.80
2022-12-25T03:30:25.660Z,3.60
2022-12-25T03:33:23.269Z,3.60
2022-12-25T03:36:04.356Z,3.60
2022-12-25T03:39:02.235Z,3.60
2022-12-25T03:41:59.386Z,3.60
2022-12-25T03:44:53.034Z,3.70
2022-12-25T03:47:44.749Z,3.70
2022-12-25T03:50:36.200Z,3.60
2022-12-25T03:53:31.063Z,3.50
2022-12-25T03:56:17.671Z,3.30
2022-12-25T03:59:10.130Z,3.20
2022-12-25T04:01:55.065Z,3.20
2022-12-25T04:04:40.518Z,3.30
2022-12-25T04:07:26.556Z,3.30
2022-12-25T04:10:14.164Z,3.20
2022-12-25T04:12:59.760Z,3.20
2022-12-25T04:15:45.501Z,3.40
2022-12-25T04:18:31.434Z,3.20
2022-12-25T04:21:13.638Z,3.10
2022-12-25T04:23:59.113Z,3.10
2022-12-25T04:26:45.915Z,3.00
2022-12-25T04:29:31.749Z,2.80
2022-12-25T04:32:18.065Z,2.70
2022-12-25T04:35:03.794Z,2.50
2022-12-25T04:37:31.995Z,2.50
2022-12-25T04:40:00.161Z,2.50
2022-12-25T04:42:29.648Z,2.40
2022-12-25T04:44:58.510Z,2.50
2022-12-25T04:47:26.626Z,2.40
2022-12-25T04:49:54.681Z,2.50
2022-12-25T04:52:22.876Z,2.70
2022-12-25T04:54:53.332Z,3.10
2022-12-25T04:57:21.591Z,3.40
2022-12-25T04:59:51.150Z,3.30
2022-12-25T05:02:19.436Z,3.30
2022-12-25T05:04:47.951Z,3.10
2022-12-25T05:07:16.138Z,3.10
2022-12-25T05:09:44.404Z,3.00
2022-12-25T05:12:13.703Z,2.70
2022-12-25T05:14:41.991Z,2.60
2022-12-25T05:17:11.546Z,2.60
2022-12-25T05:19:39.758Z,2.50
2022-12-25T05:22:07.926Z,2.60
2022-12-25T05:24:36.038Z,2.80
2022-12-25T05:27:04.353Z,2.70
2022-12-25T05:29:34.871Z,2.60
2022-12-25T05:32:03.082Z,2.50
2022-12-25T05:34:32.643Z,2.50
2022-12-25T05:37:00.901Z,2.50
2022-12-25T05:39:29.057Z,2.70
2022-12-25T05:41:57.242Z,2.70
2022-12-25T05:44:25.471Z,2.60
2022-12-25T05:46:53.684Z,2.60
2022-12-25T05:49:22.111Z,2.40
2022-12-25T05:51:53.764Z,2.20
2022-12-25T05:54:22.281Z,2.10
2022-12-25T05:56:52.428Z,2.10
2022-12-25T05:59:20.627Z,2.20
2022-12-25T06:01:49.022Z,2.10
2022-12-25T06:04:17.283Z,2.30
2022-12-25T06:06:48.096Z,2.20
2022-12-25T06:09:17.676Z,2.30
2022-12-25T06:11:45.997Z,2.30
2022-12-25T06:14:14.850Z,2.40
2022-12-25T06:16:43.201Z,2.50
2022-12-25T06:19:11.331Z,2.60
2022-12-25T06:21:39.488Z,2.60
2022-12-25T06:24:08.276Z,2.60
2022-12-25T06:26:38.128Z,2.60
2022-12-25T06:29:06.292Z,2.60
2022-12-25T06:31:34.570Z,2.60
2022-12-25T06:34:02.763Z,2.50
2022-12-25T06:36:30.919Z,2.70
2022-12-25T06:39:01.829Z,2.50
2022-12-25T06:41:31.217Z,2.40
2022-12-25T06:44:02.477Z,2.40
2022-12-25T06:46:31.750Z,2.30
2022-12-25T06:49:01.337Z,2.20
2022-12-25T06:51:31.114Z,2.20
2022-12-25T06:54:03.019Z,2.10
2022-12-25T06:56:31.967Z,2.20
2022-12-25T06:59:02.882Z,2.10
2022-12-25T07:01:34.843Z,2.10
2022-12-25T07:04:06.348Z,2.10
2022-12-25T07:06:34.856Z,2.10
2022-12-25T07:09:03.013Z,2.10
2022-12-25T07:11:31.932Z,2.20
2022-12-25T07:14:01.424Z,2.30
2022-12-25T07:16:29.627Z,2.30
2022-12-25T07:18:59.831Z,2.30
2022-12-25T07:21:27.981Z,2.40
2022-12-25T07:23:56.095Z,2.40
2022-12-25T07:26:24.324Z,2.50
2022-12-25T07:28:52.431Z,2.40
2022-12-25T07:31:21.962Z,2.50
2022-12-25T07:33:50.151Z,2.50
2022-12-25T07:36:18.303Z,2.60
2022-12-25T07:38:49.629Z,2.60
2022-12-25T07:41:18.289Z,2.60
2022-12-25T07:43:46.470Z,2.60
2022-12-25T07:46:14.664Z,2.60
2022-12-25T07:48:44.243Z,2.70
2022-12-25T07:51:14.649Z,2.70
2022-12-25T07:53:43.094Z,2.60
2022-12-25T07:56:14.272Z,2.50
2022-12-25T07:58:42.425Z,2.60
2022-12-25T08:01:13.851Z,2.60
2022-12-25T08:03:43.558Z,2.70
2022-12-25T08:06:12.883Z,2.70
2022-12-25T08:08:42.158Z,2.70
2022-12-25T08:11:10.912Z,2.70
2022-12-25T08:13:39.524Z,2.80
2022-12-25T08:16:09.726Z,2.90
2022-12-25T08:18:38.681Z,2.90
2022-12-25T08:21:10.384Z,2.90
2022-12-25T08:23:40.293Z,2.90
2022-12-25T08:26:10.160Z,2.90
2022-12-25T08:28:38.555Z,2.80
2022-12-25T08:31:12.041Z,2.70
2022-12-25T08:33:40.625Z,2.80
2022-12-25T08:36:12.415Z,2.80
2022-12-25T08:38:41.110Z,2.80
2022-12-25T08:41:10.002Z,2.80
2022-12-25T08:43:38.283Z,3.00
2022-12-25T08:46:07.381Z,3.10
2022-12-25T08:48:35.981Z,3.00
2022-12-25T08:51:04.999Z,3.00
2022-12-25T08:53:34.471Z,3.00
2022-12-25T08:56:05.765Z,3.10
2022-12-25T08:58:34.376Z,3.00
2022-12-25T09:01:02.893Z,3.10
2022-12-25T09:03:32.419Z,2.90
2022-12-25T09:06:04.154Z,3.20
2022-12-25T09:08:34.080Z,3.30
2022-12-25T09:11:04.054Z,3.40
2022-12-25T09:13:32.639Z,3.40
2022-12-25T09:16:01.454Z,3.20
2022-12-25T09:18:29.639Z,3.10
2022-12-25T09:21:01.084Z,3.20
2022-12-25T09:23:29.761Z,3.10
2022-12-25T09:26:01.224Z,3.00
2022-12-25T09:28:29.740Z,3.00
2022-12-25T09:30:58.153Z,2.80
2022-12-25T09:33:26.661Z,2.90
2022-12-25T09:35:56.021Z,2.90
2022-12-25T09:38:24.644Z,2.90
2022-12-25T09:41:02.587Z,2.80
2022-12-25T09:43:33.882Z,2.80
2022-12-25T09:46:05.304Z,2.90
2022-12-25T09:48:36.683Z,2.90
2022-12-25T09:51:11.185Z,3.00
2022-12-25T09:53:41.763Z,3.00
2022-12-25T09:56:14.164Z,3.10
2022-12-25T09:58:42.359Z,3.00
2022-12-25T10:01:20.059Z,2.80
2022-12-25T10:04:04.092Z,2.90
2022-12-25T10:06:38.624Z,2.80
2022-12-25T10:09:27.340Z,3.00
2022-12-25T10:12:08.878Z,3.00
2022-12-25T10:14:48.082Z,3.20
2022-12-25T10:17:31.723Z,3.00
2022-12-25T10:20:08.295Z,3.20
2022-12-25T10:22:41.703Z,3.30
2022-12-25T10:25:17.571Z,3.30
2022-12-25T10:27:52.732Z,3.30
2022-12-25T10:30:22.708Z,3.40
2022-12-25T10:32:51.253Z,3.50
2022-12-25T10:35:21.897Z,3.30
2022-12-25T10:37:58.122Z,3.30
2022-12-25T10:40:33.599Z,3.30
2022-12-25T10:43:12.883Z,3.30
2022-12-25T10:45:45.508Z,3.40
2022-12-25T10:48:21.826Z,3.50
2022-12-25T10:50:50.191Z,3.60
2022-12-25T10:53:23.954Z,3.70
2022-12-25T10:55:59.543Z,3.90
2022-12-25T10:58:29.462Z,4.00
2022-12-25T11:01:01.112Z,3.80
2022-12-25T11:03:31.985Z,3.80
2022-12-25T11:06:01.067Z,3.70
2022-12-25T11:08:33.508Z,3.60
2022-12-25T11:11:06.267Z,3.80
2022-12-25T11:13:40.446Z,3.80
2022-12-25T11:16:10.868Z,3.90
2022-12-25T11:18:47.058Z,3.90
2022-12-25T11:21:18.640Z,3.80
2022-12-25T11:23:49.496Z,3.90
2022-12-25T11:26:19.100Z,4.00
2022-12-25T11:28:52.085Z,4.10
2022-12-25T11:31:22.699Z,4.10
2022-12-25T11:33:55.428Z,4.20
2022-12-25T11:36:31.097Z,4.10
2022-12-25T11:39:06.305Z,4.20
2022-12-25T11:41:37.195Z,4.10
2022-12-25T11:44:18.043Z,4.10
2022-12-25T11:46:50.292Z,4.20
2022-12-25T11:49:21.170Z,4.20
2022-12-25T11:51:54.881Z,4.30
2022-12-25T11:54:27.479Z,4.40
2022-12-25T11:57:01.332Z,4.20
2022-12-25T11:59:35.893Z,4.30
2022-12-25T12:02:19.763Z,4.30
2022-12-25T12:04:52.145Z,4.30
2022-12-25T12:07:25.596Z,4.30
2022-12-25T12:10:03.314Z,4.40
2022-12-25T12:12:36.277Z,4.50
2022-12-25T12:15:16.530Z,4.60
2022-12-25T12:17:44.676Z,4.60
2022-12-25T12:20:14.762Z,4.60
2022-12-25T12:22:51.267Z,4.60
2022-12-25T12:25:20.219Z,4.70
2022-12-25T12:28:01.285Z,4.70
2022-12-25T12:30:36.255Z,4.80
2022-12-25T12:33:07.165Z,4.80
2022-12-25T12:35:38.249Z,4.80
2022-12-25T12:38:11.841Z,5.00
2022-12-25T12:40:44.929Z,4.90
2022-12-25T12:43:30.261Z,4.80
2022-12-25T12:46:02.420Z,4.80
2022-12-25T12:48:37.955Z,4.80
2022-12-25T12:51:09.436Z,4.80
2022-12-25T12:53:39.197Z,4.90
2022-12-25T12:56:12.952Z,4.90
2022-12-25T12:58:48.372Z,4.90
2022-12-25T13:01:42.677Z,4.90
2022-12-25T13:04:33.611Z,4.90
2022-12-25T13:07:14.073Z,4.80
2022-12-25T13:09:56.791Z,4.90
2022-12-25T13:12:26.083Z,4.90
2022-12-25T13:14:54.370Z,4.90
2022-12-25T13:17:26.875Z,4.90
2022-12-25T13:19:57.513Z,4.90
2022-12-25T13:22:27.563Z,4.90
2022-12-25T13:25:01.376Z,5.00
2022-12-25T13:27:31.019Z,5.00
2022-12-25T13:30:00.098Z,4.90
2022-12-25T13:32:32.893Z,5.00
2022-12-25T13:35:01.417Z,4.90
2022-12-25T13:37:32.247Z,4.90
2022-12-25T13:40:02.527Z,4.90
2022-12-25T13:42:31.879Z,4.90
2022-12-25T13:45:03.327Z,4.90
2022-12-25T13:47:34.784Z,4.90
2022-12-25T13:50:16.351Z,4.80
2022-12-25T13:52:44.470Z,4.80
2022-12-25T13:55:15.232Z,4.90
2022-12-25T13:57:46.440Z,4.80
2022-12-25T14:00:20.834Z,4.80
2022-12-25T14:02:51.734Z,4.80
2022-12-25T14:05:37.919Z,4.90
2022-12-25T14:08:15.657Z,4.90
2022-12-25T14:10:49.282Z,5.00
2022-12-25T14:13:20.933Z,5.00
2022-12-25T14:15:49.780Z,5.00
2022-12-25T14:18:20.880Z,5.00
2022-12-25T14:21:01.051Z,5.00
2022-12-25T14:23:34.637Z,5.10
2022-12-25T14:26:02.994Z,5.10
2022-12-25T14:28:32.952Z,5.10
2022-12-25T14:31:01.751Z,5.10
2022-12-25T14:33:37.621Z,5.10
2022-12-25T14:36:06.892Z,5.10
2022-12-25T14:38:35.850Z,5.10
2022-12-25T14:41:06.227Z,5.10
2022-12-25T14:43:36.375Z,5.20
2022-12-25T14:46:07.286Z,5.20
2022-12-25T14:48:36.919Z,5.20
2022-12-25T14:51:08.028Z,5.20
2022-12-25T14:53:39.626Z,5.30
2022-12-25T14:56:09.344Z,5.30
2022-12-25T14:58:43.119Z,5.30
2022-12-25T15:01:22.339Z,5.30
2022-12-25T15:03:51.990Z,5.40
2022-12-25T15:06:22.577Z,5.40
2022-12-25T15:08:58.208Z,5.40
2022-12-25T15:11:26.646Z,5.40
2022-12-25T15:13:54.769Z,5.50
2022-12-25T15:16:25.788Z,5.50
2022-12-25T15:18:56.042Z,5.50
2022-12-25T15:21:27.515Z,5.50
2022-12-25T15:23:56.929Z,5.50
2022-12-25T15:26:25.318Z,5.60
2022-12-25T15:28:54.002Z,5.60
2022-12-25T15:31:25.052Z,5.60
2022-12-25T15:33:56.295Z,5.60
2022-12-25T15:36:25.365Z,5.70
2022-12-25T15:38:54.304Z,5.70
2022-12-25T15:41:43.533Z,5.70
2022-12-25T15:44:13.677Z,5.80
2022-12-25T15:46:42.141Z,5.80
2022-12-25T15:49:12.591Z,5.80
2022-12-25T15:51:41.041Z,5.90
2022-12-25T15:54:10.467Z,5.90
2022-12-25T15:56:43.358Z,5.90
2022-12-25T15:59:13.679Z,5.90
2022-12-25T16:01:47.240Z,5.90
2022-12-25T16:04:19.474Z,6.00
2022-12-25T16:06:48.035Z,6.00
2022-12-25T16:09:19.964Z,6.00
2022-12-25T16:11:48.932Z,6.10
2022-12-25T16:14:19.402Z,6.10
2022-12-25T16:16:47.507Z,6.10
2022-12-25T16:19:15.940Z,6.10
2022-12-25T16:21:47.124Z,6.10
2022-12-25T16:24:15.742Z,6.20
2022-12-25T16:26:44.163Z,6.20
2022-12-25T16:29:12.708Z,6.20
2022-12-25T16:31:41.641Z,6.30
2022-12-25T16:34:12.160Z,6.30
2022-12-25T16:36:40.315Z,6.30
2022-12-25T16:39:09.987Z,6.30
2022-12-25T16:41:38.166Z,6.30
2022-12-25T16:44:09.380Z,6.30
2022-12-25T16:46:38.616Z,6.30
2022-12-25T16:49:07.217Z,6.30
2022-12-25T16:51:35.405Z,6.30
2022-12-25T16:54:03.604Z,6.40
2022-12-25T16:56:33.291Z,6.40
2022-12-25T16:59:01.496Z,6.40
2022-12-25T17:01:30.094Z,6.40
2022-12-25T17:04:01.363Z,6.50
2022-12-25T17:06:30.024Z,6.40
2022-12-25T17:09:00.090Z,6.50
2022-12-25T17:11:29.928Z,6.40
2022-12-25T17:14:02.031Z,6.50
2022-12-25T17:16:32.849Z,6.50
2022-12-25T17:19:04.144Z,6.50
2022-12-25T17:21:34.242Z,6.50
2022-12-25T17:24:04.178Z,6.50
2022-12-25T17:26:33.134Z,6.60
2022-12-25T17:29:02.955Z,6.60
2022-12-25T17:31:31.489Z,6.60
2022-12-25T17:34:01.929Z,6.60
2022-12-25T17:36:30.817Z,6.60
2022-12-25T17:39:00.274Z,6.70
2022-12-25T17:41:28.626Z,6.70
2022-12-25T17:43:58.979Z,6.70
2022-12-25T17:46:30.738Z,6.70
2022-12-25T17:49:00.260Z,6.70
2022-12-25T17:51:31.699Z,6.80
2022-12-25T17:54:03.069Z,6.70
2022-12-25T17:56:32.152Z,6.80
2022-12-25T17:59:03.494Z,6.80
2022-12-25T18:01:33.487Z,6.70
2022-12-25T18:04:01.901Z,6.70
2022-12-25T18:06:30.365Z,6.70
2022-12-25T18:08:59.641Z,6.70
2022-12-25T18:11:32.837Z,6.80
2022-12-25T18:14:03.655Z,6.80
2022-12-25T18:16:35.951Z,6.80
2022-12-25T18:19:06.843Z,6.80
2022-12-25T18:21:34.995Z,6.80
2022-12-25T18:24:04.135Z,6.80
2022-12-25T18:26:32.452Z,6.90
2022-12-25T18:29:00.583Z,6.90
2022-12-25T18:31:30.129Z,6.90
2022-12-25T18:34:02.005Z,6.90
2022-12-25T18:36:30.863Z,6.90
2022-12-25T18:38:59.817Z,7.00
2022-12-25T18:41:30.258Z,7.00
2022-12-25T18:44:00.219Z,7.00
2022-12-25T18:46:28.756Z,7.00
2022-12-25T18:48:58.674Z,7.00
2022-12-25T18:51:34.950Z,7.00
2022-12-25T18:54:05.326Z,7.00
2022-12-25T18:56:33.921Z,7.00
2022-12-25T18:59:02.575Z,7.00
2022-12-25T19:01:30.778Z,7.00
2022-12-25T19:04:04.485Z,7.10
2022-12-25T19:06:35.305Z,7.10
2022-12-25T19:09:09.037Z,7.10
2022-12-25T19:11:45.587Z,7.10
2022-12-25T19:14:15.901Z,7.10
2022-12-25T19:16:44.762Z,7.10
2022-12-25T19:19:14.686Z,7.10
2022-12-25T19:21:44.263Z,7.10
2022-12-25T19:24:12.474Z,7.10
2022-12-25T19:26:40.671Z,7.10
2022-12-25T19:29:08.837Z,7.20
2022-12-25T19:31:38.078Z,7.10
2022-12-25T19:34:06.852Z,7.10
2022-12-25T19:36:35.390Z,7.20
2022-12-25T19:39:05.256Z,7.20
2022-12-25T19:41:33.701Z,7.20
2022-12-25T19:44:02.013Z,7.20
2022-12-25T19:46:34.659Z,7.10
2022-12-25T19:49:04.317Z,7.20
2022-12-25T19:51:35.073Z,7.30
2022-12-25T19:54:05.386Z,7.30
2022-12-25T19:56:34.672Z,7.30
2022-12-25T19:59:02.780Z,7.30
2022-12-25T20:01:31.777Z,7.30
2022-12-25T20:04:00.353Z,7.30
2022-12-25T20:06:30.455Z,7.30
2022-12-25T20:09:01.560Z,7.40
2022-12-25T20:11:32.467Z,7.40
2022-12-25T20:14:01.147Z,7.40
2022-12-25T20:16:29.467Z,7.40
2022-12-25T20:18:58.831Z,7.40
2022-12-25T20:21:27.640Z,7.50
2022-12-25T20:23:56.484Z,7.50
2022-12-25T20:26:27.744Z,7.50
2022-12-25T20:28:57.702Z,7.50
2022-12-25T20:31:27.516Z,7.60
2022-12-25T20:33:56.076Z,7.50
2022-12-25T20:36:24.273Z,7.50
2022-12-25T20:38:52.839Z,7.60
2022-12-25T20:41:27.376Z,7.60
2022-12-25T20:43:58.072Z,7.60
2022-12-25T20:46:26.957Z,7.60
2022-12-25T20:48:55.204Z,7.60
2022-12-25T20:51:25.907Z,7.60
2022-12-25T20:53:54.747Z,7.60
2022-12-25T20:56:27.657Z,7.60
2022-12-25T20:59:00.701Z,7.60
2022-12-25T21:01:30.424Z,7.60
2022-12-25T21:03:59.546Z,7.60
2022-12-25T21:06:27.868Z,7.60
2022-12-25T21:08:56.015Z,7.60
2022-12-25T21:11:24.391Z,7.70
2022-12-25T21:13:52.823Z,7.70
2022-12-25T21:16:23.404Z,7.60
2022-12-25T21:18:53.349Z,7.70
2022-12-25T21:21:22.555Z,7.70
2022-12-25T21:23:50.755Z,7.70
2022-12-25T21:26:21.085Z,7.70
2022-12-25T21:28:49.585Z,7.70
2022-12-25T21:31:18.474Z,7.70
2022-12-25T21:33:53.229Z,7.80
2022-12-25T21:36:27.775Z,7.80
2022-12-25T21:38:58.448Z,7.80
2022-12-25T21:41:27.989Z,7.80
2022-12-25T21:43:57.041Z,7.90
2022-12-25T21:46:26.071Z,7.90
2022-12-25T21:48:56.014Z,7.90
2022-12-25T21:51:43.580Z,7.90
2022-12-25T21:54:13.066Z,7.90
2022-12-25T21:56:44.935Z,7.90
2022-12-25T21:59:18.040Z,7.90
2022-12-25T22:01:46.952Z,7.90
2022-12-25T22:04:17.928Z,8.00
2022-12-25T22:07:12.248Z,7.90
2022-12-25T22:09:40.343Z,8.00
2022-12-25T22:12:33.598Z,8.00
2022-12-25T22:15:06.269Z,8.00
2022-12-25T22:17:53.895Z,8.00
2022-12-25T22:20:26.045Z,8.00
2022-12-25T22:22:54.724Z,8.10
2022-12-25T22:25:23.577Z,8.10
2022-12-25T22:27:52.158Z,8.10
2022-12-25T22:30:22.180Z,8.10
2022-12-25T22:32:50.453Z,8.10
2022-12-25T22:35:18.888Z,8.20
2022-12-25T22:37:49.535Z,8.20
2022-12-25T22:40:20.005Z,8.20
2022-12-25T22:42:50.785Z,8.20
2022-12-25T22:45:19.051Z,8.20
2022-12-25T22:47:47.285Z,8.20
2022-12-25T22:50:17.560Z,8.20
2022-12-25T22:52:47.129Z,8.30
2022-12-25T22:55:20.457Z,8.30
2022-12-25T22:57:49.258Z,8.40
2022-12-25T23:00:17.404Z,8.50
2022-12-25T23:02:45.761Z,8.50
2022-12-25T23:05:14.070Z,8.50
2022-12-25T23:07:44.751Z,8.50
2022-12-25T23:10:12.875Z,8.60
2022-12-25T23:13:01.730Z,8.60
2022-12-25T23:15:29.993Z,8.60
2022-12-25T23:18:12.064Z,8.70
2022-12-25T23:20:57.409Z,8.70
2022-12-25T23:23:43.052Z,8.70
2022-12-25T23:26:15.779Z,8.70
2022-12-25T23:29:17.935Z,8.70
2022-12-25T23:31:53.414Z,8.80
2022-12-25T23:34:22.252Z,8.80
2022-12-25T23:36:50.532Z,8.80
2022-12-25T23:39:18.787Z,8.80
2022-12-25T23:41:48.927Z,8.80
2022-12-25T23:44:18.575Z,8.80
2022-12-25T23:46:52.611Z,8.80
2022-12-25T23:49:22.472Z,8.80
2022-12-25T23:51:50.895Z,8.90
2022-12-25T23:54:21.370Z,8.90
2022-12-25T23:56:49.748Z,8.90
2022-12-25T23:59:20.087Z,8.90
